SWR38T EHRD-EKCH
Flight info
| Callsign | SWR38T |
|---|---|
| Flight time | 1h 2m |
| Altitude | 37000 |
| Route | ANDIK N873 JUIST DCT DOSUR P729 TUDLO |
| Aircraft | A319/M-SDE3FGHIRWY/LB1 |
Departure
| Time | 2026-05-04 17:44 |
|---|---|
| Airport | Rotterdam The Hague Airport (EHRD) |
Arrival
| Time | 2026-05-04 18:46 |
|---|---|
| Airport | Copenhagen Kastrup Airport (EKCH) |
| Time | Latitude | Longitude | Altitude | Speed | Heading |
|---|---|---|---|---|---|
| 2026-05-04 17:26 | 51.95189 | 4.43404 | -7 ft | 0 kts | 327° |
| 2026-05-04 17:39 | 51.95200 | 4.43393 | -7 ft | 2 kts | 327° |
| 2026-05-04 17:39 | 51.95216 | 4.43361 | -7 ft | 5 kts | 282° |
| 2026-05-04 17:39 | 51.95198 | 4.43293 | -7 ft | 7 kts | 237° |
| 2026-05-04 17:40 | 51.95166 | 4.43210 | -7 ft | 9 kts | 237° |
| 2026-05-04 17:40 | 51.95132 | 4.43105 | -7 ft | 11 kts | 245° |
| 2026-05-04 17:40 | 51.95116 | 4.43049 | -7 ft | 0 kts | 248° |
| 2026-05-04 17:42 | 51.95116 | 4.43046 | -7 ft | 1 kts | 248° |
| 2026-05-04 17:42 | 51.95112 | 4.43020 | -6 ft | 4 kts | 261° |
| 2026-05-04 17:42 | 51.95119 | 4.42957 | -6 ft | 6 kts | 300° |
| 2026-05-04 17:43 | 51.95157 | 4.42901 | -6 ft | 9 kts | 324° |
| 2026-05-04 17:43 | 51.95219 | 4.42872 | -6 ft | 10 kts | 42° |
| 2026-05-04 17:43 | 51.95265 | 4.42968 | -6 ft | 12 kts | 57° |
| 2026-05-04 17:43 | 51.95403 | 4.43310 | -7 ft | 76 kts | 56° |
| 2026-05-04 17:44 | 51.95835 | 4.44390 | -6 ft | 149 kts | 56° |
| 2026-05-04 17:44 | 51.96421 | 4.45886 | 611 ft | 159 kts | 56° |
| 2026-05-04 17:44 | 51.96945 | 4.47368 | 1559 ft | 155 kts | 58° |
| 2026-05-04 17:44 | 51.97458 | 4.48875 | 2314 ft | 161 kts | 59° |
| 2026-05-04 17:45 | 51.98037 | 4.50575 | 2809 ft | 185 kts | 59° |
| 2026-05-04 17:45 | 51.98724 | 4.52583 | 2954 ft | 229 kts | 59° |
| 2026-05-04 17:45 | 51.99537 | 4.54950 | 2962 ft | 248 kts | 58° |
| 2026-05-04 17:45 | 52.00580 | 4.57165 | 2958 ft | 249 kts | 41° |
| 2026-05-04 17:46 | 52.02040 | 4.58679 | 2964 ft | 248 kts | 25° |
| 2026-05-04 17:46 | 52.03607 | 4.59849 | 2974 ft | 250 kts | 25° |
| 2026-05-04 17:46 | 52.05130 | 4.61324 | 3238 ft | 259 kts | 37° |
| 2026-05-04 17:46 | 52.06467 | 4.63275 | 4286 ft | 262 kts | 44° |
| 2026-05-04 17:47 | 52.07714 | 4.65340 | 5404 ft | 263 kts | 46° |
| 2026-05-04 17:47 | 52.08987 | 4.67493 | 6397 ft | 268 kts | 46° |
| 2026-05-04 17:47 | 52.10271 | 4.69672 | 7340 ft | 273 kts | 46° |
| 2026-05-04 17:47 | 52.11578 | 4.71887 | 8282 ft | 278 kts | 46° |
| 2026-05-04 17:48 | 52.12916 | 4.74152 | 9192 ft | 284 kts | 46° |
| 2026-05-04 17:48 | 52.14299 | 4.76491 | 10083 ft | 290 kts | 46° |
| 2026-05-04 17:48 | 52.15717 | 4.78889 | 10779 ft | 303 kts | 46° |
| 2026-05-04 17:48 | 52.17211 | 4.81414 | 11247 ft | 321 kts | 46° |
| 2026-05-04 17:49 | 52.18802 | 4.84107 | 11730 ft | 338 kts | 46° |
| 2026-05-04 17:49 | 52.20441 | 4.86891 | 12467 ft | 346 kts | 46° |
| 2026-05-04 17:49 | 52.22085 | 4.89688 | 13300 ft | 350 kts | 46° |
| 2026-05-04 17:49 | 52.23779 | 4.92572 | 14113 ft | 353 kts | 46° |
| 2026-05-04 17:50 | 52.25479 | 4.95465 | 14904 ft | 357 kts | 46° |
| 2026-05-04 17:50 | 52.27185 | 4.98374 | 15663 ft | 362 kts | 46° |
| 2026-05-04 17:50 | 52.28945 | 5.01383 | 16383 ft | 367 kts | 46° |
| 2026-05-04 17:50 | 52.30691 | 5.04366 | 17123 ft | 370 kts | 46° |
| 2026-05-04 17:51 | 52.32567 | 5.07278 | 17852 ft | 374 kts | 38° |
| 2026-05-04 17:51 | 52.34764 | 5.09496 | 18497 ft | 379 kts | 25° |
| 2026-05-04 17:51 | 52.37259 | 5.10961 | 19129 ft | 383 kts | 15° |
| 2026-05-04 17:51 | 52.39811 | 5.12082 | 19755 ft | 387 kts | 13° |
| 2026-05-04 17:52 | 52.42456 | 5.13189 | 20393 ft | 392 kts | 13° |
| 2026-05-04 17:52 | 52.45082 | 5.14295 | 21010 ft | 395 kts | 13° |
| 2026-05-04 17:52 | 52.47733 | 5.15433 | 21625 ft | 399 kts | 13° |
| 2026-05-04 17:52 | 52.50413 | 5.16597 | 22215 ft | 403 kts | 13° |
| 2026-05-04 17:53 | 52.53151 | 5.17794 | 22807 ft | 406 kts | 12° |
| 2026-05-04 17:53 | 52.55868 | 5.18987 | 23377 ft | 409 kts | 12° |
| 2026-05-04 17:53 | 52.58600 | 5.20191 | 23930 ft | 413 kts | 12° |
| 2026-05-04 17:53 | 52.61391 | 5.21423 | 24461 ft | 416 kts | 12° |
| 2026-05-04 17:54 | 52.64203 | 5.22664 | 24949 ft | 421 kts | 12° |
| 2026-05-04 17:54 | 52.67008 | 5.23907 | 25401 ft | 426 kts | 12° |
| 2026-05-04 17:54 | 52.69884 | 5.25185 | 25860 ft | 431 kts | 13° |
| 2026-05-04 17:54 | 52.72690 | 5.26967 | 26265 ft | 439 kts | 26° |
| 2026-05-04 17:55 | 52.75200 | 5.29844 | 26705 ft | 445 kts | 41° |
| 2026-05-04 17:55 | 52.77303 | 5.33661 | 27152 ft | 449 kts | 51° |
| 2026-05-04 17:55 | 52.79203 | 5.37748 | 27578 ft | 453 kts | 53° |
| 2026-05-04 17:55 | 52.81109 | 5.41910 | 27989 ft | 457 kts | 53° |
| 2026-05-04 17:56 | 52.83039 | 5.46094 | 28398 ft | 461 kts | 53° |
| 2026-05-04 17:56 | 52.84992 | 5.50300 | 28804 ft | 465 kts | 53° |
| 2026-05-04 17:56 | 52.86963 | 5.54529 | 29198 ft | 468 kts | 53° |
| 2026-05-04 17:56 | 52.88943 | 5.58770 | 29574 ft | 472 kts | 53° |
| 2026-05-04 17:57 | 52.90957 | 5.63084 | 29929 ft | 476 kts | 53° |
| 2026-05-04 17:57 | 52.92985 | 5.67432 | 30298 ft | 479 kts | 54° |
| 2026-05-04 17:57 | 52.94994 | 5.71745 | 30674 ft | 482 kts | 54° |
| 2026-05-04 17:57 | 52.97052 | 5.76172 | 31050 ft | 484 kts | 54° |
| 2026-05-04 17:58 | 52.99082 | 5.80552 | 31513 ft | 483 kts | 54° |
| 2026-05-04 17:58 | 53.01135 | 5.84992 | 32019 ft | 481 kts | 54° |
| 2026-05-04 17:58 | 53.03148 | 5.89349 | 32463 ft | 481 kts | 54° |
| 2026-05-04 17:58 | 53.05166 | 5.93726 | 32900 ft | 480 kts | 53° |
| 2026-05-04 17:59 | 53.07204 | 5.98149 | 33320 ft | 480 kts | 53° |
| 2026-05-04 17:59 | 53.09210 | 6.02511 | 33727 ft | 479 kts | 53° |
| 2026-05-04 17:59 | 53.13220 | 6.11241 | 34533 ft | 478 kts | 53° |
| 2026-05-04 18:00 | 53.15247 | 6.15663 | 34890 ft | 477 kts | 52° |
| 2026-05-04 18:00 | 53.17239 | 6.20017 | 35229 ft | 476 kts | 52° |
| 2026-05-04 18:00 | 53.19237 | 6.24394 | 35524 ft | 475 kts | 52° |
| 2026-05-04 18:00 | 53.21226 | 6.28764 | 35781 ft | 475 kts | 52° |
| 2026-05-04 18:01 | 53.23201 | 6.33111 | 36021 ft | 475 kts | 52° |
| 2026-05-04 18:01 | 53.25187 | 6.37490 | 36199 ft | 475 kts | 52° |
| 2026-05-04 18:01 | 53.27174 | 6.41878 | 36387 ft | 475 kts | 52° |
| 2026-05-04 18:02 | 53.31128 | 6.50638 | 36851 ft | 475 kts | 52° |
| 2026-05-04 18:02 | 53.33142 | 6.54987 | 36976 ft | 477 kts | 50° |
| 2026-05-04 18:02 | 53.37610 | 6.63144 | 36986 ft | 476 kts | 42° |
| 2026-05-04 18:03 | 53.42445 | 6.70622 | 36992 ft | 477 kts | 41° |
| 2026-05-04 18:03 | 53.47348 | 6.78114 | 36994 ft | 476 kts | 41° |
| 2026-05-04 18:04 | 53.52181 | 6.85576 | 36998 ft | 477 kts | 41° |
| 2026-05-04 18:05 | 53.59393 | 6.97085 | 36997 ft | 477 kts | 43° |
| 2026-05-04 18:05 | 53.64068 | 7.04952 | 36996 ft | 477 kts | 43° |
| 2026-05-04 18:06 | 53.71073 | 7.16791 | 36993 ft | 477 kts | 43° |
| 2026-05-04 18:06 | 53.75738 | 7.24695 | 36991 ft | 476 kts | 43° |
| 2026-05-04 18:07 | 53.80373 | 7.32574 | 36997 ft | 476 kts | 43° |
| 2026-05-04 18:07 | 53.85014 | 7.40486 | 36988 ft | 475 kts | 43° |
| 2026-05-04 18:08 | 53.89637 | 7.48397 | 36991 ft | 475 kts | 43° |
| 2026-05-04 18:08 | 53.94265 | 7.56344 | 36987 ft | 475 kts | 43° |
| 2026-05-04 18:09 | 54.03508 | 7.72289 | 36990 ft | 474 kts | 44° |
| 2026-05-04 18:10 | 54.08108 | 7.80265 | 36988 ft | 474 kts | 44° |
| 2026-05-04 18:10 | 54.12695 | 7.88242 | 36981 ft | 473 kts | 44° |
| 2026-05-04 18:11 | 54.17275 | 7.96239 | 36986 ft | 473 kts | 44° |
| 2026-05-04 18:11 | 54.21857 | 8.04264 | 36980 ft | 473 kts | 44° |
| 2026-05-04 18:12 | 54.26433 | 8.12306 | 36971 ft | 473 kts | 44° |
| 2026-05-04 18:12 | 54.30971 | 8.20307 | 36973 ft | 472 kts | 44° |
| 2026-05-04 18:13 | 54.35533 | 8.28380 | 36977 ft | 472 kts | 44° |
| 2026-05-04 18:14 | 54.42341 | 8.40481 | 36972 ft | 472 kts | 43° |
| 2026-05-04 18:14 | 54.46456 | 8.49128 | 36976 ft | 474 kts | 53° |
| 2026-05-04 18:15 | 54.53721 | 8.67935 | 36970 ft | 474 kts | 55° |
| 2026-05-04 18:16 | 54.57358 | 8.77313 | 36974 ft | 473 kts | 55° |
| 2026-05-04 18:16 | 54.61009 | 8.86721 | 36973 ft | 473 kts | 55° |
| 2026-05-04 18:17 | 54.66450 | 9.00796 | 36970 ft | 474 kts | 54° |
| 2026-05-04 18:18 | 54.71916 | 9.15004 | 36972 ft | 474 kts | 55° |
| 2026-05-04 18:18 | 54.75519 | 9.24418 | 36968 ft | 474 kts | 54° |
| 2026-05-04 18:19 | 54.80926 | 9.38611 | 36973 ft | 473 kts | 54° |
| 2026-05-04 18:19 | 54.84551 | 9.48173 | 36960 ft | 474 kts | 54° |
| 2026-05-04 18:20 | 54.88139 | 9.57673 | 36702 ft | 473 kts | 54° |
| 2026-05-04 18:20 | 54.89936 | 9.62447 | 36455 ft | 471 kts | 54° |
| 2026-05-04 18:20 | 54.91697 | 9.67133 | 36229 ft | 469 kts | 55° |
| 2026-05-04 18:21 | 54.93469 | 9.71856 | 35924 ft | 467 kts | 55° |
| 2026-05-04 18:21 | 54.95235 | 9.76572 | 35406 ft | 468 kts | 56° |
| 2026-05-04 18:21 | 54.97003 | 9.81302 | 34817 ft | 471 kts | 55° |
| 2026-05-04 18:21 | 54.98792 | 9.86099 | 34093 ft | 474 kts | 55° |
| 2026-05-04 18:22 | 55.00563 | 9.90853 | 33334 ft | 477 kts | 56° |
| 2026-05-04 18:22 | 55.02364 | 9.95695 | 32579 ft | 480 kts | 56° |
| 2026-05-04 18:22 | 55.04171 | 10.00572 | 31814 ft | 482 kts | 56° |
| 2026-05-04 18:22 | 55.05980 | 10.05460 | 31031 ft | 484 kts | 56° |
| 2026-05-04 18:23 | 55.07789 | 10.10364 | 30291 ft | 484 kts | 55° |
| 2026-05-04 18:23 | 55.09601 | 10.15282 | 29792 ft | 478 kts | 55° |
| 2026-05-04 18:23 | 55.11376 | 10.20112 | 29308 ft | 471 kts | 55° |
| 2026-05-04 18:23 | 55.13117 | 10.24858 | 28890 ft | 466 kts | 55° |
| 2026-05-04 18:24 | 55.14840 | 10.29561 | 28418 ft | 463 kts | 55° |
| 2026-05-04 18:24 | 55.16573 | 10.34298 | 27885 ft | 458 kts | 55° |
| 2026-05-04 18:24 | 55.18244 | 10.38880 | 27406 ft | 442 kts | 55° |
| 2026-05-04 18:24 | 55.19868 | 10.43345 | 26918 ft | 432 kts | 55° |
| 2026-05-04 18:25 | 55.21462 | 10.47730 | 26517 ft | 424 kts | 55° |
| 2026-05-04 18:25 | 55.23023 | 10.52036 | 26173 ft | 416 kts | 55° |
| 2026-05-04 18:25 | 55.24545 | 10.56241 | 25767 ft | 410 kts | 55° |
| 2026-05-04 18:25 | 55.26043 | 10.60436 | 25361 ft | 405 kts | 57° |
| 2026-05-04 18:26 | 55.27348 | 10.64779 | 24967 ft | 401 kts | 63° |
| 2026-05-04 18:26 | 55.28393 | 10.69261 | 24586 ft | 396 kts | 70° |
| 2026-05-04 18:26 | 55.29214 | 10.73783 | 24215 ft | 391 kts | 72° |
| 2026-05-04 18:26 | 55.29973 | 10.78318 | 23838 ft | 386 kts | 73° |
| 2026-05-04 18:27 | 55.30715 | 10.82795 | 23430 ft | 383 kts | 73° |
| 2026-05-04 18:27 | 55.31462 | 10.87262 | 22983 ft | 380 kts | 72° |
| 2026-05-04 18:27 | 55.32202 | 10.91640 | 22549 ft | 378 kts | 72° |
| 2026-05-04 18:27 | 55.32949 | 10.96045 | 22110 ft | 376 kts | 72° |
| 2026-05-04 18:28 | 55.33683 | 11.00399 | 21678 ft | 374 kts | 72° |
| 2026-05-04 18:28 | 55.34414 | 11.04771 | 21255 ft | 372 kts | 72° |
| 2026-05-04 18:28 | 55.35129 | 11.09073 | 20841 ft | 370 kts | 72° |
| 2026-05-04 18:28 | 55.35846 | 11.13402 | 20418 ft | 368 kts | 72° |
| 2026-05-04 18:29 | 55.36551 | 11.17668 | 20012 ft | 366 kts | 72° |
| 2026-05-04 18:29 | 55.37253 | 11.21923 | 19598 ft | 364 kts | 72° |
| 2026-05-04 18:29 | 55.37958 | 11.26213 | 19187 ft | 362 kts | 72° |
| 2026-05-04 18:29 | 55.38648 | 11.30423 | 18788 ft | 360 kts | 72° |
| 2026-05-04 18:30 | 55.40018 | 11.38802 | 17979 ft | 356 kts | 72° |
| 2026-05-04 18:30 | 55.40697 | 11.42971 | 17582 ft | 354 kts | 72° |
| 2026-05-04 18:30 | 55.41367 | 11.47094 | 17196 ft | 353 kts | 72° |
| 2026-05-04 18:31 | 55.42030 | 11.51190 | 16812 ft | 351 kts | 72° |
| 2026-05-04 18:31 | 55.42692 | 11.55295 | 16440 ft | 348 kts | 72° |
| 2026-05-04 18:31 | 55.43349 | 11.59356 | 16179 ft | 347 kts | 71° |
| 2026-05-04 18:31 | 55.44315 | 11.63234 | 15972 ft | 342 kts | 53° |
| 2026-05-04 18:32 | 55.45808 | 11.66394 | 15584 ft | 339 kts | 44° |
| 2026-05-04 18:32 | 55.47216 | 11.69729 | 15218 ft | 341 kts | 60° |
| 2026-05-04 18:32 | 55.48219 | 11.73481 | 14872 ft | 339 kts | 65° |
| 2026-05-04 18:32 | 55.49153 | 11.77230 | 14505 ft | 337 kts | 64° |
| 2026-05-04 18:33 | 55.50147 | 11.81004 | 14117 ft | 335 kts | 62° |
| 2026-05-04 18:33 | 55.51160 | 11.84626 | 13746 ft | 333 kts | 61° |
| 2026-05-04 18:33 | 55.52211 | 11.88235 | 13364 ft | 331 kts | 60° |
| 2026-05-04 18:33 | 55.53270 | 11.91790 | 12961 ft | 328 kts | 60° |
| 2026-05-04 18:34 | 55.54341 | 11.95348 | 12622 ft | 326 kts | 60° |
| 2026-05-04 18:34 | 55.55395 | 11.98830 | 12205 ft | 324 kts | 59° |
| 2026-05-04 18:34 | 55.56450 | 12.02316 | 11824 ft | 322 kts | 59° |
| 2026-05-04 18:34 | 55.57494 | 12.05765 | 11449 ft | 320 kts | 59° |
| 2026-05-04 18:35 | 55.58538 | 12.09213 | 11074 ft | 317 kts | 59° |
| 2026-05-04 18:35 | 55.59569 | 12.12627 | 10710 ft | 315 kts | 59° |
| 2026-05-04 18:35 | 55.60597 | 12.16035 | 10341 ft | 313 kts | 59° |
| 2026-05-04 18:35 | 55.61608 | 12.19390 | 9968 ft | 311 kts | 59° |
| 2026-05-04 18:36 | 55.62621 | 12.22756 | 9605 ft | 308 kts | 59° |
| 2026-05-04 18:36 | 55.63620 | 12.26082 | 9239 ft | 306 kts | 59° |
| 2026-05-04 18:36 | 55.64608 | 12.29376 | 8868 ft | 305 kts | 59° |
| 2026-05-04 18:36 | 55.65597 | 12.32680 | 8547 ft | 302 kts | 59° |
| 2026-05-04 18:37 | 55.66570 | 12.35935 | 8187 ft | 300 kts | 59° |
| 2026-05-04 18:37 | 55.67535 | 12.39169 | 7822 ft | 297 kts | 59° |
| 2026-05-04 18:37 | 55.68498 | 12.42409 | 7487 ft | 294 kts | 59° |
| 2026-05-04 18:37 | 55.69429 | 12.45565 | 7214 ft | 291 kts | 59° |
| 2026-05-04 18:38 | 55.70359 | 12.48729 | 6882 ft | 287 kts | 59° |
| 2026-05-04 18:38 | 55.71265 | 12.51822 | 6557 ft | 285 kts | 60° |
| 2026-05-04 18:38 | 55.72168 | 12.54911 | 6247 ft | 282 kts | 59° |
| 2026-05-04 18:38 | 55.73067 | 12.57996 | 5931 ft | 279 kts | 59° |
| 2026-05-04 18:39 | 55.73933 | 12.60979 | 5583 ft | 268 kts | 59° |
| 2026-05-04 18:39 | 55.74759 | 12.63856 | 5258 ft | 258 kts | 59° |
| 2026-05-04 18:39 | 55.75561 | 12.66655 | 4962 ft | 253 kts | 60° |
| 2026-05-04 18:39 | 55.76342 | 12.69389 | 4795 ft | 247 kts | 60° |
| 2026-05-04 18:40 | 55.77117 | 12.72123 | 4532 ft | 245 kts | 60° |
| 2026-05-04 18:40 | 55.77869 | 12.74788 | 4305 ft | 241 kts | 60° |
| 2026-05-04 18:40 | 55.78605 | 12.77405 | 4165 ft | 234 kts | 60° |
| 2026-05-04 18:40 | 55.79312 | 12.79936 | 4020 ft | 226 kts | 61° |
| 2026-05-04 18:41 | 55.79735 | 12.82567 | 3983 ft | 226 kts | 90° |
| 2026-05-04 18:41 | 55.79309 | 12.85226 | 3986 ft | 227 kts | 125° |
| 2026-05-04 18:41 | 55.78142 | 12.87034 | 3980 ft | 222 kts | 161° |
| 2026-05-04 18:41 | 55.76684 | 12.87419 | 3814 ft | 210 kts | 195° |
| 2026-05-04 18:42 | 55.75347 | 12.86501 | 3473 ft | 205 kts | 217° |
| 2026-05-04 18:42 | 55.74227 | 12.85024 | 3246 ft | 198 kts | 226° |
| 2026-05-04 18:42 | 55.73239 | 12.83415 | 3091 ft | 189 kts | 228° |
| 2026-05-04 18:42 | 55.72317 | 12.81907 | 2987 ft | 170 kts | 228° |
| 2026-05-04 18:43 | 55.71468 | 12.80560 | 2985 ft | 163 kts | 227° |
| 2026-05-04 18:43 | 55.70611 | 12.79218 | 2615 ft | 170 kts | 227° |
| 2026-05-04 18:43 | 55.69709 | 12.77821 | 2032 ft | 172 kts | 226° |
| 2026-05-04 18:43 | 55.68829 | 12.76473 | 1667 ft | 163 kts | 226° |
| 2026-05-04 18:44 | 55.68018 | 12.75234 | 1459 ft | 148 kts | 226° |
| 2026-05-04 18:44 | 55.67519 | 12.74468 | 1311 ft | 139 kts | 227° |
| 2026-05-04 18:44 | 55.66598 | 12.73045 | 1059 ft | 128 kts | 227° |
| 2026-05-04 18:44 | 55.65930 | 12.72007 | 906 ft | 128 kts | 227° |
| 2026-05-04 18:45 | 55.65260 | 12.70970 | 744 ft | 127 kts | 226° |
| 2026-05-04 18:45 | 55.64601 | 12.69952 | 578 ft | 126 kts | 226° |
| 2026-05-04 18:45 | 55.63937 | 12.68925 | 407 ft | 126 kts | 226° |
| 2026-05-04 18:45 | 55.63284 | 12.67915 | 237 ft | 125 kts | 226° |
| 2026-05-04 18:46 | 55.62636 | 12.66902 | 75 ft | 124 kts | 225° |
| 2026-05-04 18:46 | 55.62034 | 12.65946 | 17 ft | 96 kts | 221° |
| 2026-05-04 18:46 | 55.61759 | 12.65545 | 20 ft | 49 kts | 223° |
| 2026-05-04 18:46 | 55.61609 | 12.65095 | 22 ft | 42 kts | 285° |
| 2026-05-04 18:47 | 55.61723 | 12.64830 | 22 ft | 8 kts | 329° |
| 2026-05-04 18:47 | 55.61738 | 12.64814 | 22 ft | 0 kts | 329° |
| 2026-05-04 18:47 | 55.61741 | 12.64811 | 22 ft | 1 kts | 329° |
| 2026-05-04 18:47 | 55.61753 | 12.64799 | 22 ft | 2 kts | 335° |
| 2026-05-04 18:48 | 55.61776 | 12.64784 | 22 ft | 4 kts | 349° |
| 2026-05-04 18:48 | 55.61813 | 12.64780 | 22 ft | 6 kts | 3° |
| 2026-05-04 18:48 | 55.61862 | 12.64793 | 22 ft | 7 kts | 12° |
| 2026-05-04 18:48 | 55.61916 | 12.64838 | 22 ft | 9 kts | 29° |
| 2026-05-04 18:49 | 55.61979 | 12.64912 | 22 ft | 11 kts | 35° |
| 2026-05-04 18:49 | 55.62052 | 12.65000 | 21 ft | 13 kts | 33° |
| 2026-05-04 18:49 | 55.62131 | 12.65089 | 20 ft | 11 kts | 32° |
| 2026-05-04 18:49 | 55.62136 | 12.65095 | 20 ft | 0 kts | 32° |
| 2026-05-04 18:50 | 55.62144 | 12.65104 | 20 ft | 3 kts | 32° |
| 2026-05-04 18:51 | 55.62181 | 12.65146 | 20 ft | 9 kts | 34° |
| 2026-05-04 18:51 | 55.62249 | 12.65139 | 20 ft | 12 kts | 311° |
| 2026-05-04 18:51 | 55.62306 | 12.64994 | 21 ft | 15 kts | 302° |
| 2026-05-04 18:51 | 55.62371 | 12.64813 | 21 ft | 18 kts | 303° |
| 2026-05-04 18:52 | 55.62447 | 12.64609 | 21 ft | 20 kts | 303° |
| 2026-05-04 18:52 | 55.62526 | 12.64398 | 21 ft | 20 kts | 304° |
| 2026-05-04 18:52 | 55.62598 | 12.64205 | 21 ft | 17 kts | 303° |
| 2026-05-04 18:52 | 55.62637 | 12.64108 | 21 ft | 4 kts | 331° |
| 2026-05-04 18:53 | 55.62650 | 12.64112 | 21 ft | 4 kts | 22° |
| 2026-05-04 18:53 | 55.62683 | 12.64146 | 21 ft | 5 kts | 34° |
| 2026-05-04 18:53 | 55.62699 | 12.64164 | 21 ft | 0 kts | 33° |
| 2026-05-04 18:53 | 55.62701 | 12.64167 | 20 ft | 0 kts | 32° |